EDDS/STR METAR and TAF weather

Enter ICAO airport designator
Station Type Date Time Source
EDDS METAR 2019/04/19 22:50 UTC NOAA

EDDS 192250Z VRB02KT CAVOK 10/02 Q1027


Station Type Date Time Source
EDDS Decoded METAR 2019/04/19 22:50 UTC NOAA

Stuttgart-Echterdingen, Germany (EDDS) 48-41N 009-13E 391M
Apr 19, 2019 - 06:50 PM EDT / 2019.04.19 2250 UTC
Wind: Variable at 2 MPH (2 KT):0
Visibility: greater than 7 mile(s):0
Temperature: 50 F (10 C)
Dew Point: 35 F (2 C)
Relative Humidity: 57%
Pressure (altimeter): 30.33 in. Hg (1027 hPa)
ob: EDDS 192250Z VRB02KT CAVOK 10/02 Q1027
cycle: 23

Station Type Date Time Source
EDDS TAF 2019/04/19 18:27 UTC NOAA

TAF EDDS 191700Z 1918/2018 09006KT CAVOK
BECMG 1918/1921 VRB03KT
BECMG 2008/2011 05007KT

Example: see airport list